Terminal Aerodrome Forecast
Issued by NWS Cleveland, OH

Home | Current Version | Previous Version | Text Only | Print | Product List | Glossary On
Versions: 1 2 3 4 5 6 7 8 9 10 11 12 13 14 15 16 17 18 19 20 21 22 23 24 25 26
390
FTUS41 KCLE 012342
TAFCLE
TAF
KCLE 012342Z 0200/0306 04006KT P6SM SCT008 OVC018
     FM020500 06008KT 5SM -SHRA BR BKN008 OVC015
     FM020700 08008KT 3SM -SHRA BR OVC005
     FM021100 02008KT 2SM BR OVC005
     FM021600 02008KT P6SM OVC008
     FM022200 04008KT P6SM OVC012=

USA.gov is the U.S. government's official web portal to all federal, state and local government web resources and services.